Rumford Center, Maine
Current Conditions -  °F | °C
As of 4:52 AM on Sunday 23 Nov 2014 (Local Time) from KBML Reporting Station
Light Rain Light Rain  
Wind Chill: 32°   Ceiling: 2100
Heat Index: 36°   Visibility: 10mi
Dew Point: 31°   Wind: 5mph
Humidity: 82%   Direction: 290°WNW
Pressure: 29.95"   Gusts: NA
Location:  44.51°N, 70.62°W
Report Text: KBML 230952Z AUTO 29004KT 10SM -RA OVC021 02/M01 A2995 RMK AO2 RAB38 SLP156 P0000 T00221006
Loading
Personal Weather Stations






























Interactive Weather Map New forecast layout! Learn more

10-Day Weather Forecast

Advertisements
Track Severe Weather on mobile